Time;durP1;ratioP1;P1;durP2;ratioP2;P2;SDS_P1;SDS_P2;PMS_P1;PMS_P2;Temp;Humidity;BMP_temperature;BMP_pressure;BME280_temperature;BME280_humidity;BME280_pressure;Samples;Min_cycle;Max_cycle;Signal;HPM_P1;HPM_P2
2023/05/07 05:01:24;;;;;;;7.00;3.67;;;14.40;99.90;;;;;;6855202;23;20510;-76
2023/05/07 05:04:26;;;;;;;;;;;14.40;99.90;;;;;;6106059;29;20052;-75
2023/05/07 05:07:28;;;;;;;8.23;4.10;;;14.50;99.90;;;;;;6105165;29;19923;-76
2023/05/07 05:10:30;;;;;;;6.07;3.70;;;14.50;99.90;;;;;;6105931;29;20054;-75
2023/05/07 05:13:32;;;;;;;6.80;3.95;;;14.50;99.90;;;;;;6105068;29;20059;-73
2023/05/07 05:16:35;;;;;;;11.80;4.47;;;14.50;99.90;;;;;;6100382;29;20067;-76
2023/05/07 05:19:37;;;;;;;6.90;4.00;;;14.50;99.90;;;;;;6105209;29;20059;-74
2023/05/07 05:22:39;;;;;;;5.95;3.97;;;14.40;99.90;;;;;;6095308;29;20048;-74
2023/05/07 05:25:41;;;;;;;7.40;4.10;;;14.50;99.90;;;;;;6107482;29;20048;-75
2023/05/07 05:28:43;;;;;;;5.88;4.00;;;14.60;99.90;;;;;;6104731;29;20055;-76
2023/05/07 05:31:46;;;;;;;6.82;4.03;;;14.70;99.90;;;;;;6103713;29;20049;-74
2023/05/07 05:34:48;;;;;;;6.30;4.10;;;14.70;99.90;;;;;;6104926;29;20048;-75
2023/05/07 05:37:50;;;;;;;6.15;4.10;;;14.80;99.90;;;;;;6104567;29;20044;-75
2023/05/07 05:40:52;;;;;;;6.35;4.22;;;14.90;99.90;;;;;;6104369;29;20060;-74
2023/05/07 05:43:54;;;;;;;7.82;3.88;;;14.90;99.90;;;;;;6104412;29;20585;-74
2023/05/07 05:46:59;;;;;;;7.70;4.13;;;15.00;99.90;;;;;;6099618;29;20051;-74
2023/05/07 05:50:00;;;;;;;7.43;4.15;;;15.00;99.90;;;;;;6098708;29;20115;-75
2023/05/07 05:53:02;;;;;;;5.70;3.95;;;15.10;99.90;;;;;;6108154;29;20055;-74
2023/05/07 05:56:05;;;;;;;7.45;4.10;;;15.20;99.90;;;;;;6095507;29;20059;-74
2023/05/07 05:59:07;;;;;;;5.93;4.00;;;15.30;99.90;;;;;;6106054;29;20052;-75
2023/05/07 06:02:10;;;;;;;6.35;4.03;;;15.40;99.90;;;;;;6101023;29;20505;-73
2023/05/07 06:05:12;;;;;;;7.25;4.15;;;15.40;99.90;;;;;;6100293;29;20059;-75
2023/05/07 06:08:14;;;;;;;7.68;3.85;;;15.50;99.90;;;;;;6100603;29;20078;-77
2023/05/07 06:11:16;;;;;;;7.03;4.15;;;15.60;99.90;;;;;;6103965;29;20055;-75
2023/05/07 06:14:18;;;;;;;7.65;4.20;;;15.70;99.90;;;;;;6104338;29;20050;-74
2023/05/07 06:17:21;;;;;;;7.57;4.18;;;15.80;99.90;;;;;;6107090;29;20063;-75
2023/05/07 06:20:23;;;;;;;7.88;4.40;;;15.90;99.90;;;;;;6103519;29;20437;-75
2023/05/07 06:23:25;;;;;;;8.77;4.53;;;15.90;99.90;;;;;;6105620;29;20048;-75
2023/05/07 06:26:27;;;;;;;7.53;4.20;;;15.90;99.90;;;;;;6108583;29;20056;-75
2023/05/07 06:29:31;;;;;;;8.23;4.40;;;16.00;99.90;;;;;;6101837;29;20052;-75
2023/05/07 06:32:34;;;;;;;8.60;4.30;;;16.10;99.90;;;;;;6104170;29;20048;-74
2023/05/07 06:35:36;;;;;;;5.53;4.03;;;16.20;99.90;;;;;;6103637;29;20056;-74
2023/05/07 06:38:38;;;;;;;6.32;3.92;;;16.30;99.90;;;;;;6104003;29;20048;-74
2023/05/07 06:41:39;;;;;;;8.73;4.30;;;16.40;99.90;;;;;;6110421;29;20055;-75
2023/05/07 06:44:41;;;;;;;5.82;4.03;;;16.50;99.90;;;;;;6111089;29;20045;-75
2023/05/07 06:47:45;;;;;;;6.30;4.50;;;16.50;99.90;;;;;;6108896;29;20059;-74
2023/05/07 06:50:46;;;;;;;6.65;4.22;;;16.50;99.90;;;;;;6097017;29;22282;-75
2023/05/07 06:53:48;;;;;;;6.10;3.92;;;16.50;99.90;;;;;;6101949;29;20048;-74
2023/05/07 06:56:50;;;;;;;6.85;3.72;;;16.60;99.90;;;;;;6099374;29;20402;-76
2023/05/07 06:59:52;;;;;;;5.85;3.80;;;16.70;99.90;;;;;;6102035;29;20048;-77
2023/05/07 07:02:56;;;;;;;6.47;3.95;;;16.80;99.90;;;;;;6102725;29;20063;-73
2023/05/07 07:05:58;;;;;;;7.40;4.00;;;16.80;99.90;;;;;;6100854;29;20474;-75
2023/05/07 07:09:00;;;;;;;6.68;3.83;;;16.90;99.90;;;;;;6102824;29;20055;-74
2023/05/07 07:12:02;;;;;;;7.63;4.40;;;16.80;99.90;;;;;;6102189;29;20052;-73
2023/05/07 07:15:04;;;;;;;6.57;3.97;;;16.80;99.90;;;;;;6101953;29;20056;-75
2023/05/07 07:18:08;;;;;;;7.90;4.17;;;16.90;99.90;;;;;;6099791;29;20049;-76
2023/05/07 07:21:09;;;;;;;6.63;4.30;;;17.00;99.90;;;;;;6099239;29;20808;-78
2023/05/07 07:24:12;;;;;;;7.03;4.25;;;17.00;99.90;;;;;;6102129;29;20066;-74
2023/05/07 07:27:13;;;;;;;7.15;4.10;;;17.10;99.90;;;;;;6103375;29;20084;-76
2023/05/07 07:30:15;;;;;;;7.47;4.00;;;17.20;99.90;;;;;;6107603;29;20051;-75
2023/05/07 07:33:18;;;;;;;8.52;4.20;;;17.40;99.90;;;;;;6110023;29;20393;-75
2023/05/07 07:36:20;;;;;;;5.93;4.10;;;17.50;99.90;;;;;;6114104;29;20131;-74
2023/05/07 07:39:22;;;;;;;7.22;3.85;;;17.50;99.90;;;;;;6110825;29;20056;-77
2023/05/07 07:42:24;;;;;;;6.93;3.90;;;17.50;99.90;;;;;;6110463;29;20055;-77
2023/05/07 07:45:26;;;;;;;6.18;4.10;;;17.50;99.90;;;;;;6111831;29;20447;-75
2023/05/07 07:48:29;;;;;;;5.18;3.92;;;17.70;99.90;;;;;;6110877;29;20056;-76
2023/05/07 07:51:31;;;;;;;;;;;17.70;99.90;;;;;;6112938;29;20044;-73
2023/05/07 07:54:33;;;;;;;5.30;3.78;;;17.90;99.90;;;;;;6112205;29;20022;-75
2023/05/07 07:57:35;;;;;;;5.80;3.85;;;17.90;99.90;;;;;;6107409;29;20052;-77
2023/05/07 08:00:37;;;;;;;5.45;3.53;;;17.90;99.90;;;;;;6099747;29;20040;-75
2023/05/07 08:03:40;;;;;;;6.80;3.63;;;18.00;99.90;;;;;;6109994;29;20044;-76
2023/05/07 08:06:42;;;;;;;7.22;4.00;;;18.10;99.90;;;;;;6112191;29;20060;-74
2023/05/07 08:09:44;;;;;;;5.80;3.55;;;18.10;99.90;;;;;;6108656;29;20051;-74
2023/05/07 08:12:46;;;;;;;6.32;4.00;;;18.20;99.90;;;;;;6104721;29;20493;-75
2023/05/07 08:15:47;;;;;;;5.97;3.90;;;18.30;99.90;;;;;;6106177;29;20406;-75
2023/05/07 08:18:51;;;;;;;8.10;4.15;;;18.30;99.90;;;;;;6106403;29;20063;-75
2023/05/07 08:21:52;;;;;;;5.32;3.85;;;18.30;99.90;;;;;;6104537;29;20044;-74
2023/05/07 08:24:54;;;;;;;6.38;3.65;;;18.30;99.90;;;;;;6106112;29;20052;-74
2023/05/07 08:27:56;;;;;;;6.95;3.53;;;18.50;99.90;;;;;;6105635;29;20056;-75
2023/05/07 08:31:00;;;;;;;6.10;3.35;;;18.50;99.90;;;;;;6105451;29;20048;-77
2023/05/07 08:34:04;;;;;;;8.60;3.75;;;18.60;99.90;;;;;;6099413;29;20056;-80
2023/05/07 08:37:06;;;;;;;5.35;3.25;;;18.70;99.90;;;;;;6106052;29;20048;-75
2023/05/07 08:40:09;;;;;;;5.63;3.63;;;18.70;99.90;;;;;;6093926;29;20509;-76
2023/05/07 08:43:14;;;;;;;5.50;3.42;;;18.70;99.90;;;;;;6104902;29;20044;-75
2023/05/07 08:46:19;;;;;;;4.85;3.10;;;18.90;99.90;;;;;;6106064;29;20055;-79
2023/05/07 08:49:25;;;;;;;4.63;2.50;;;19.00;99.90;;;;;;6104555;29;20048;-72
2023/05/07 08:52:28;;;;;;;7.20;3.10;;;19.00;99.90;;;;;;6105976;29;20052;-72
2023/05/07 08:55:30;;;;;;;5.38;2.70;;;19.20;99.90;;;;;;6106132;29;20413;-72
2023/05/07 08:58:31;;;;;;;5.32;2.95;;;19.30;99.90;;;;;;6104175;29;20055;-72
2023/05/07 09:01:35;;;;;;;6.50;2.88;;;19.50;99.60;;;;;;6105814;29;20063;-72
2023/05/07 09:04:38;;;;;;;4.88;2.95;;;19.50;99.60;;;;;;6105309;29;20410;-71
2023/05/07 09:07:41;;;;;;;6.40;2.97;;;19.60;99.30;;;;;;6104770;29;20059;-70
2023/05/07 09:10:42;;;;;;;5.32;2.70;;;19.70;99.20;;;;;;6103509;29;20410;-71
2023/05/07 09:13:44;;;;;;;5.97;3.00;;;19.80;98.90;;;;;;6105052;29;20438;-72
2023/05/07 09:16:47;;;;;;;5.28;2.50;;;19.80;98.80;;;;;;6104237;29;20059;-75
2023/05/07 09:19:50;;;;;;;6.28;2.78;;;19.90;98.50;;;;;;6104129;29;20052;-72
2023/05/07 09:22:52;;;;;;;8.63;3.40;;;20.00;98.70;;;;;;6104656;29;20055;-75
2023/05/07 09:26:01;;;;;;;5.93;3.05;;;20.20;99.40;;;;;;6102994;29;20430;-73
2023/05/07 09:29:03;;;;;;;4.70;2.80;;;20.30;98.60;;;;;;6104160;29;20060;-74
2023/05/07 09:32:07;;;;;;;5.18;2.72;;;20.30;98.50;;;;;;6104672;29;20056;-74
2023/05/07 09:35:16;;;;;;;4.72;2.72;;;20.40;98.60;;;;;;6104975;29;20048;-75
2023/05/07 09:38:20;;;;;;;5.57;2.70;;;20.50;98.10;;;;;;6103331;29;20502;-74
2023/05/07 09:41:23;;;;;;;7.40;2.92;;;20.50;97.90;;;;;;6103477;29;20060;-72
2023/05/07 09:44:26;;;;;;;5.15;2.58;;;20.60;97.80;;;;;;6104813;29;20092;-73
2023/05/07 09:47:33;;;;;;;4.95;2.50;;;20.70;97.00;;;;;;6104445;29;20176;-71
2023/05/07 09:50:47;;;;;;;4.65;2.40;;;20.70;97.20;;;;;;6103390;29;20071;-73
2023/05/07 09:53:51;;;;;;;4.38;2.15;;;20.80;95.90;;;;;;6102938;29;20051;-73
2023/05/07 09:56:53;;;;;;;7.03;3.58;;;21.00;96.00;;;;;;6108005;29;20055;-72
2023/05/07 09:59:57;;;;;;;6.05;2.50;;;21.20;96.40;;;;;;6102989;29;20072;-71
2023/05/07 10:03:01;;;;;;;5.03;2.50;;;21.20;96.80;;;;;;6103779;29;20059;-71
2023/05/07 10:06:05;;;;;;;4.47;2.20;;;21.40;95.30;;;;;;6094068;29;20048;-73
2023/05/07 10:09:08;;;;;;;3.67;2.17;;;21.50;94.80;;;;;;6103516;29;20055;-71
2023/05/07 10:12:10;;;;;;;6.47;2.38;;;21.40;94.80;;;;;;6104711;29;20059;-73
2023/05/07 10:15:14;;;;;;;4.25;2.10;;;21.50;95.70;;;;;;6103817;29;20078;-72
2023/05/07 10:18:17;;;;;;;4.40;1.98;;;21.60;93.30;;;;;;6101431;29;20044;-71
2023/05/07 10:21:22;;;;;;;;;;;21.70;94.20;;;;;;6105130;29;20052;-70
2023/05/07 10:24:28;;;;;;;4.53;2.20;;;21.80;93.00;;;;;;6102552;29;19958;-73
2023/05/07 10:27:31;;;;;;;3.72;1.98;;;21.90;92.60;;;;;;6103895;29;20490;-80
2023/05/07 10:30:49;;;;;;;5.63;1.80;;;22.00;91.70;;;;;;6101061;29;20047;-74
2023/05/07 10:33:54;;;;;;;4.25;1.90;;;22.00;91.10;;;;;;6105993;29;20100;-79
2023/05/07 10:36:58;;;;;;;4.72;2.00;;;22.20;92.90;;;;;;6102900;29;20052;-79
2023/05/07 10:40:00;;;;;;;5.07;2.28;;;22.30;94.20;;;;;;6102699;29;20059;-79
2023/05/07 10:43:04;;;;;;;4.20;2.20;;;22.30;93.80;;;;;;6103743;29;20052;-78
2023/05/07 10:46:17;;;;;;;4.30;1.88;;;22.30;92.00;;;;;;6103614;29;20068;-76
2023/05/07 10:49:19;;;;;;;6.22;2.20;;;22.30;91.20;;;;;;6102569;29;20052;-73
2023/05/07 10:52:25;;;;;;;10.90;3.35;;;22.40;91.50;;;;;;6103516;29;20058;-75
2023/05/07 10:55:29;;;;;;;15.25;4.30;;;22.50;92.00;;;;;;6080324;29;20411;-79
2023/05/07 10:58:33;;;;;;;9.15;3.00;;;22.60;94.50;;;;;;6102094;29;20054;-74
2023/05/07 11:01:54;;;;;;;;;;;22.70;93.40;;;;;;6101993;29;20064;-73
2023/05/07 11:05:21;;;;;;;;;;;22.70;94.00;;;;;;6103557;29;20018;-73
2023/05/07 11:08:24;;;;;;;10.98;2.83;;;22.80;90.90;;;;;;6107521;29;19923;-71
2023/05/07 11:11:50;;;;;;;;;;;22.80;91.60;;;;;;6106318;29;20048;-73
2023/05/07 11:14:53;;;;;;;5.97;1.83;;;22.90;92.60;;;;;;6108373;29;19923;-73
2023/05/07 11:17:57;;;;;;;8.70;2.50;;;23.00;91.20;;;;;;6108037;29;20059;-73
2023/05/07 11:21:00;;;;;;;6.40;2.10;;;23.10;91.00;;;;;;6105636;29;20048;-73
2023/05/07 11:24:06;;;;;;;5.43;2.00;;;23.10;90.00;;;;;;6101300;29;20055;-72
2023/05/07 11:27:09;;;;;;;4.47;1.80;;;23.10;90.50;;;;;;6107708;29;20100;-72
2023/05/07 11:30:18;;;;;;;8.27;3.30;;;23.30;89.70;;;;;;6106451;29;20052;-71
2023/05/07 11:33:20;;;;;;;6.43;2.50;;;23.40;91.40;;;;;;6107219;29;20631;-74
2023/05/07 11:36:25;;;;;;;5.00;1.83;;;23.30;88.70;;;;;;6103642;29;20067;-72
2023/05/07 11:39:32;;;;;;;7.38;2.70;;;23.40;87.00;;;;;;6105531;29;20059;-72
2023/05/07 11:42:37;;;;;;;5.03;2.03;;;23.40;88.90;;;;;;6107287;29;20056;-75
2023/05/07 11:45:39;;;;;;;6.57;2.53;;;23.50;88.30;;;;;;6106645;29;20044;-75
2023/05/07 11:48:41;;;;;;;7.55;2.40;;;23.40;88.30;;;;;;6105954;29;20486;-76
2023/05/07 11:51:44;;;;;;;11.45;3.22;;;23.30;87.00;;;;;;6105857;29;20518;-78
2023/05/07 11:54:51;;;;;;;;;;;23.30;90.50;;;;;;6106662;29;20044;-72
2023/05/07 11:57:53;;;;;;;5.35;2.58;;;23.30;90.80;;;;;;6106884;29;19923;-74
2023/05/07 12:00:55;;;;;;;3.78;1.83;;;23.30;87.90;;;;;;6105877;29;20055;-77
2023/05/07 12:03:57;;;;;;;4.23;1.90;;;23.00;86.30;;;;;;6102594;29;20049;-78
2023/05/07 12:06:59;;;;;;;5.43;2.67;;;22.70;88.00;;;;;;6105624;29;20048;-78
2023/05/07 12:10:06;;;;;;;4.47;1.80;;;22.20;88.70;;;;;;6104646;29;20100;-79
2023/05/07 12:13:16;;;;;;;4.72;1.60;;;21.70;88.50;;;;;;6105804;29;20063;-79
2023/05/07 12:16:19;;;;;;;3.20;1.33;;;21.50;89.60;;;;;;6099789;29;20570;-79
2023/05/07 12:19:22;;;;;;;2.67;1.35;;;21.40;89.30;;;;;;6101371;29;20056;-79
2023/05/07 12:22:24;;;;;;;5.68;1.50;;;21.20;89.50;;;;;;6101739;29;20063;-77
2023/05/07 12:25:27;;;;;;;4.90;1.88;;;21.10;90.10;;;;;;6103895;29;20380;-77
2023/05/07 12:28:30;;;;;;;5.35;2.33;;;21.00;93.30;;;;;;6105943;29;20048;-77
2023/05/07 12:31:33;;;;;;;7.60;2.55;;;20.80;94.70;;;;;;6103542;29;20056;-78
2023/05/07 12:34:35;;;;;;;4.40;2.45;;;20.90;95.90;;;;;;6104014;29;20052;-78
2023/05/07 12:37:37;;;;;;;5.53;2.72;;;20.70;97.20;;;;;;6102888;29;20490;-78
2023/05/07 12:40:42;;;;;;;6.43;2.60;;;20.90;98.50;;;;;;6102439;29;20494;-78
2023/05/07 12:43:46;;;;;;;5.45;2.75;;;20.70;99.30;;;;;;6099955;29;20059;-78
2023/05/07 12:46:48;;;;;;;4.63;2.40;;;20.60;99.90;;;;;;6103636;29;20047;-77
2023/05/07 12:49:51;;;;;;;7.13;2.58;;;20.50;98.80;;;;;;6103051;29;20060;-80
2023/05/07 12:52:53;;;;;;;4.10;2.40;;;20.60;99.60;;;;;;6101554;29;20131;-77
2023/05/07 12:55:59;;;;;;;6.10;3.00;;;20.50;99.30;;;;;;6101954;29;20052;-78
2023/05/07 12:59:01;;;;;;;5.47;3.15;;;20.50;99.30;;;;;;6102587;29;20052;-78
2023/05/07 13:02:03;;;;;;;8.68;3.83;;;20.60;99.50;;;;;;6097994;29;20052;-77
2023/05/07 13:05:06;;;;;;;5.95;3.65;;;20.40;99.50;;;;;;6102844;29;20101;-74
2023/05/07 13:08:09;;;;;;;6.03;3.42;;;20.40;99.90;;;;;;6105258;29;20048;-75
2023/05/07 13:11:13;;;;;;;8.23;3.80;;;20.20;99.90;;;;;;6105167;29;20052;-76
2023/05/07 13:14:16;;;;;;;8.13;3.10;;;19.90;99.90;;;;;;6105500;29;20304;-76
2023/05/07 13:17:18;;;;;;;5.03;2.60;;;19.90;99.90;;;;;;6105772;29;20055;-75
2023/05/07 13:20:20;;;;;;;5.57;2.35;;;19.90;99.90;;;;;;6106046;29;20312;-77
2023/05/07 13:23:22;;;;;;;4.50;2.30;;;19.90;99.90;;;;;;6105600;29;20052;-77
2023/05/07 13:26:25;;;;;;;4.70;1.85;;;19.80;99.90;;;;;;6103246;29;20055;-78
2023/05/07 13:29:31;;;;;;;5.03;2.10;;;19.80;96.90;;;;;;6102824;29;20055;-76
2023/05/07 13:32:33;;;;;;;3.50;1.85;;;19.70;99.90;;;;;;6106342;29;20451;-76
2023/05/07 13:35:35;;;;;;;4.97;1.90;;;19.60;99.20;;;;;;6109163;29;20192;-75
2023/05/07 13:38:37;;;;;;;5.40;1.40;;;19.50;98.00;;;;;;6106394;29;20068;-78
2023/05/07 13:41:40;;;;;;;5.65;1.90;;;19.50;97.00;;;;;;6101650;29;20056;-78
2023/05/07 13:44:43;;;;;;;3.38;1.42;;;19.30;97.50;;;;;;6101611;29;20059;-76
2023/05/07 13:47:46;;;;;;;3.65;1.48;;;19.00;97.60;;;;;;6099857;29;20059;-76
2023/05/07 13:50:48;;;;;;;9.80;2.30;;;18.60;99.90;;;;;;6099240;29;20059;-75
2023/05/07 13:53:50;;;;;;;6.57;2.47;;;18.20;99.90;;;;;;6095727;29;20052;-77
2023/05/07 13:56:53;;;;;;;7.03;2.90;;;17.50;99.90;;;;;;6101655;29;20052;-75
2023/05/07 13:59:55;;;;;;;9.30;3.00;;;17.00;99.90;;;;;;6103080;29;20056;-78
2023/05/07 14:02:57;;;;;;;8.07;2.70;;;16.70;99.90;;;;;;6105982;29;20060;-78
2023/05/07 14:06:01;;;;;;;6.18;2.40;;;16.50;99.90;;;;;;6100681;29;20517;-77
2023/05/07 14:09:03;;;;;;;4.80;2.40;;;16.50;99.90;;;;;;6101384;29;20064;-76
2023/05/07 14:12:08;;;;;;;5.72;2.33;;;16.40;99.90;;;;;;6103567;29;20056;-77
2023/05/07 14:15:11;;;;;;;5.97;2.35;;;16.20;99.90;;;;;;6100316;29;20112;-77
2023/05/07 14:18:13;;;;;;;6.35;2.50;;;16.30;99.90;;;;;;6099897;29;20486;-75
2023/05/07 14:21:14;;;;;;;6.70;2.65;;;16.30;99.90;;;;;;6096433;29;20052;-75
2023/05/07 14:24:16;;;;;;;6.20;2.53;;;16.30;99.90;;;;;;6102621;29;20056;-76
2023/05/07 14:27:19;;;;;;;7.55;4.40;;;16.40;99.90;;;;;;6101449;29;20072;-76
2023/05/07 14:30:24;;;;;;;9.20;5.47;;;16.40;99.90;;;;;;6101076;29;20052;-77
2023/05/07 14:33:25;;;;;;;7.65;3.20;;;16.50;99.90;;;;;;6098135;29;20056;-76
2023/05/07 14:36:27;;;;;;;6.80;2.92;;;16.60;99.90;;;;;;6099937;29;20577;-76
2023/05/07 14:39:29;;;;;;;5.68;2.50;;;16.60;99.90;;;;;;6100283;29;20106;-76
2023/05/07 14:42:32;;;;;;;6.85;2.70;;;16.60;99.90;;;;;;6101935;29;20167;-75
2023/05/07 14:45:34;;;;;;;8.00;2.60;;;16.60;99.90;;;;;;6106712;29;20059;-76
2023/05/07 14:48:36;;;;;;;4.93;3.08;;;16.70;99.90;;;;;;6115530;29;20094;-76
2023/05/07 14:51:38;;;;;;;6.57;3.10;;;16.90;99.90;;;;;;6117366;29;20048;-78
2023/05/07 14:54:40;;;;;;;6.25;3.40;;;16.80;99.90;;;;;;6115870;29;20057;-77
2023/05/07 14:57:43;;;;;;;6.32;3.00;;;16.90;99.90;;;;;;6109876;29;20134;-76
2023/05/07 15:00:45;;;;;;;7.72;3.50;;;16.90;99.90;;;;;;6100616;29;20067;-75
2023/05/07 15:03:47;;;;;;;6.82;3.60;;;16.90;99.90;;;;;;6107881;29;20633;-78
2023/05/07 15:06:49;;;;;;;8.38;4.10;;;16.70;99.90;;;;;;6106894;29;20044;-76
2023/05/07 15:09:51;;;;;;;6.55;3.47;;;16.70;99.90;;;;;;6084664;29;20093;-76
2023/05/07 15:12:54;;;;;;;6.60;3.53;;;16.80;99.90;;;;;;6082981;29;20060;-77
2023/05/07 15:15:56;;;;;;;6.18;3.95;;;16.90;99.90;;;;;;6098243;29;20071;-76
2023/05/07 15:18:58;;;;;;;6.10;4.00;;;16.90;99.90;;;;;;6104291;29;20524;-76
2023/05/07 15:22:02;;;;;;;10.80;7.03;;;16.90;99.90;;;;;;6104608;29;20044;-74
2023/05/07 15:25:05;;;;;;;13.77;8.82;;;16.90;99.90;;;;;;6104850;29;20052;-76
2023/05/07 15:28:08;;;;;;;9.50;4.60;;;17.00;99.90;;;;;;6104359;29;20107;-78
2023/05/07 15:31:10;;;;;;;9.27;4.13;;;17.20;99.90;;;;;;6104441;29;20071;-77
2023/05/07 15:34:14;;;;;;;5.82;3.33;;;17.30;99.90;;;;;;6098859;29;20059;-75
2023/05/07 15:37:16;;;;;;;5.88;3.20;;;17.40;99.90;;;;;;6103796;29;20063;-76
2023/05/07 15:40:18;;;;;;;6.32;3.17;;;17.50;99.90;;;;;;6104333;29;20422;-78
2023/05/07 15:43:21;;;;;;;6.22;2.85;;;17.70;99.90;;;;;;6103848;29;20055;-76
2023/05/07 15:46:25;;;;;;;4.93;3.20;;;17.70;99.90;;;;;;6104238;29;20498;-78
2023/05/07 15:49:27;;;;;;;6.13;3.40;;;17.70;99.90;;;;;;6102474;29;20060;-78
2023/05/07 15:52:29;;;;;;;5.20;3.28;;;17.70;99.90;;;;;;6103725;29;20051;-76
2023/05/07 15:55:31;;;;;;;5.40;3.30;;;17.60;99.90;;;;;;6104023;29;20048;-74
2023/05/07 15:58:35;;;;;;;7.63;3.60;;;17.60;99.90;;;;;;6104571;29;20498;-76
2023/05/07 16:01:37;;;;;;;9.88;3.92;;;17.70;99.90;;;;;;6104518;29;20063;-77
2023/05/07 16:04:39;;;;;;;6.72;4.03;;;17.70;99.90;;;;;;6103627;29;20135;-76
2023/05/07 16:07:42;;;;;;;6.95;4.68;;;17.70;99.90;;;;;;6103577;29;20044;-76
2023/05/07 16:10:45;;;;;;;7.55;3.97;;;17.60;99.90;;;;;;6103731;29;20525;-78
2023/05/07 16:13:51;;;;;;;9.18;4.72;;;17.70;99.90;;;;;;6103557;29;20048;-75
2023/05/07 16:16:53;;;;;;;8.38;3.85;;;17.70;99.90;;;;;;6102597;29;20516;-77
2023/05/07 16:19:57;;;;;;;8.18;4.15;;;17.70;99.90;;;;;;6093247;29;20063;-77
2023/05/07 16:22:59;;;;;;;7.15;3.80;;;17.50;99.90;;;;;;6102442;29;20133;-77
2023/05/07 16:26:01;;;;;;;8.60;4.13;;;17.70;99.90;;;;;;6103117;29;20047;-76
2023/05/07 16:29:04;;;;;;;5.93;3.80;;;17.70;99.90;;;;;;6103016;29;20044;-78
2023/05/07 16:32:06;;;;;;;6.53;3.90;;;17.80;99.90;;;;;;6103115;29;20055;-77
2023/05/07 16:35:09;;;;;;;6.15;3.95;;;17.80;99.90;;;;;;6102880;29;20056;-77
2023/05/07 16:38:11;;;;;;;7.60;3.85;;;17.80;99.90;;;;;;6102365;29;20048;-76
2023/05/07 16:41:13;;;;;;;7.65;3.92;;;17.80;99.90;;;;;;6102366;29;20052;-77
2023/05/07 16:44:16;;;;;;;6.30;3.40;;;17.80;99.90;;;;;;6102401;29;20553;-77
2023/05/07 16:47:18;;;;;;;6.18;3.60;;;17.80;99.90;;;;;;6101085;29;20096;-75
2023/05/07 16:50:20;;;;;;;5.95;3.40;;;17.80;99.90;;;;;;6102907;29;20059;-74
2023/05/07 16:53:22;;;;;;;5.90;3.60;;;17.80;99.90;;;;;;6102448;29;20048;-76
2023/05/07 16:56:24;;;;;;;6.07;3.65;;;17.70;99.90;;;;;;6102708;29;20055;-77
2023/05/07 16:59:31;;;;;;;7.03;3.70;;;17.60;99.90;;;;;;6102812;29;20056;-76
2023/05/07 17:02:34;;;;;;;6.10;3.90;;;17.60;99.90;;;;;;6102446;29;20081;-76
2023/05/07 17:05:35;;;;;;;8.45;3.83;;;17.60;99.90;;;;;;6101017;29;20052;-79
2023/05/07 17:08:37;;;;;;;6.43;3.60;;;17.60;99.90;;;;;;6102603;29;20056;-77
2023/05/07 17:11:39;;;;;;;5.15;3.33;;;17.50;99.90;;;;;;6102518;29;20145;-76
2023/05/07 17:14:43;;;;;;;6.38;3.85;;;17.50;99.90;;;;;;6102877;29;20052;-76
2023/05/07 17:17:44;;;;;;;7.15;3.85;;;17.50;99.90;;;;;;6102249;29;20063;-78
2023/05/07 17:20:46;;;;;;;6.57;3.65;;;17.50;99.90;;;;;;6104661;29;20494;-77
2023/05/07 17:23:48;;;;;;;8.45;3.97;;;17.50;99.90;;;;;;6116418;29;20127;-77
2023/05/07 17:26:52;;;;;;;8.20;4.15;;;17.50;99.90;;;;;;6110870;29;20052;-80
2023/05/07 17:29:56;;;;;;;6.88;3.53;;;17.50;99.90;;;;;;6092962;29;20048;-79
2023/05/07 17:32:58;;;;;;;5.85;3.05;;;17.50;99.90;;;;;;6098257;29;20231;-78
2023/05/07 17:36:01;;;;;;;6.13;3.20;;;17.50;99.90;;;;;;6098456;29;20063;-75
2023/05/07 17:39:04;;;;;;;6.20;3.30;;;17.40;99.90;;;;;;6098622;29;20063;-80
2023/05/07 17:42:06;;;;;;;5.70;3.13;;;17.40;99.90;;;;;;6099811;29;20410;-78
2023/05/07 17:45:11;;;;;;;5.75;2.90;;;17.50;99.90;;;;;;6101332;29;20052;-78
2023/05/07 17:48:13;;;;;;;6.50;3.40;;;17.40;99.90;;;;;;6098944;29;20059;-78
2023/05/07 17:51:15;;;;;;;6.30;3.87;;;17.30;99.90;;;;;;6100773;29;20063;-78
2023/05/07 17:54:18;;;;;;;8.10;4.22;;;17.30;99.90;;;;;;6100574;29;20150;-78
2023/05/07 17:57:21;;;;;;;7.97;4.45;;;17.40;99.90;;;;;;6096870;29;20059;-80
2023/05/07 18:00:24;;;;;;;5.72;3.55;;;17.40;99.90;;;;;;6103185;29;20048;-80
2023/05/07 18:03:27;;;;;;;6.53;3.78;;;17.40;99.90;;;;;;6099157;29;20052;-80
2023/05/07 18:06:29;;;;;;;;;;;17.40;99.90;;;;;;6099565;29;20052;-80
2023/05/07 18:09:31;;;;;;;7.25;3.60;;;17.40;99.90;;;;;;6097518;29;19923;-79
2023/05/07 18:12:33;;;;;;;6.80;4.10;;;17.40;99.90;;;;;;6118048;29;20060;-79
2023/05/07 18:15:36;;;;;;;7.63;4.22;;;17.30;99.90;;;;;;6113830;29;20063;-80
2023/05/07 18:18:38;;;;;;;5.75;3.92;;;17.30;99.90;;;;;;6094866;29;20477;-82
2023/05/07 18:21:40;;;;;;;5.80;3.53;;;17.30;99.90;;;;;;6090731;29;20063;-78
2023/05/07 18:24:41;;;;;;;8.70;4.72;;;17.30;99.90;;;;;;6099678;29;20063;-78
2023/05/07 18:27:43;;;;;;;9.07;4.05;;;17.10;99.90;;;;;;6110628;29;20718;-80
2023/05/07 18:30:46;;;;;;;6.72;3.55;;;17.10;99.90;;;;;;6125280;29;20052;-79
2023/05/07 18:33:52;;;;;;;5.97;3.50;;;17.20;99.90;;;;;;6097785;29;20836;-80
2023/05/07 18:36:54;;;;;;;6.60;3.35;;;17.20;99.90;;;;;;6102970;29;20059;-80
2023/05/07 18:40:00;;;;;;;8.43;3.78;;;17.30;99.90;;;;;;6101930;29;20317;-77
2023/05/07 18:43:05;;;;;;;6.47;4.00;;;17.20;99.90;;;;;;6094830;29;20048;-79
2023/05/07 18:46:08;;;;;;;6.45;3.90;;;17.20;99.90;;;;;;6098314;29;20056;-78
2023/05/07 18:49:10;;;;;;;5.80;3.40;;;17.20;99.90;;;;;;6096449;29;20490;-78
2023/05/07 18:52:12;;;;;;;7.05;3.70;;;17.20;99.90;;;;;;6095694;29;20052;-78
2023/05/07 18:55:14;;;;;;;5.82;3.53;;;17.10;99.90;;;;;;6098142;29;20466;-77
2023/05/07 18:58:18;;;;;;;6.53;4.10;;;17.10;99.90;;;;;;6098000;29;20052;-80
2023/05/07 19:01:21;;;;;;;8.00;4.43;;;17.10;99.90;;;;;;6098073;29;20422;-79
2023/05/07 19:04:23;;;;;;;7.32;4.60;;;17.10;99.90;;;;;;6096046;29;20056;-78
2023/05/07 19:07:25;;;;;;;11.05;6.68;;;17.10;99.90;;;;;;6097788;29;20056;-81
2023/05/07 19:10:27;;;;;;;9.48;6.18;;;17.00;99.90;;;;;;6096273;29;20048;-81
2023/05/07 19:13:29;;;;;;;9.45;5.72;;;17.00;99.90;;;;;;6098090;29;20052;-80
2023/05/07 19:16:32;;;;;;;6.25;5.40;;;17.00;99.90;;;;;;6097903;29;20064;-81
2023/05/07 19:19:34;;;;;;;8.48;5.32;;;17.00;99.90;;;;;;6095021;29;20044;-77
2023/05/07 19:22:36;;;;;;;7.30;5.00;;;17.00;99.90;;;;;;6095581;29;20063;-75
2023/05/07 19:25:38;;;;;;;7.55;4.47;;;17.00;99.90;;;;;;6087654;29;20048;-75
2023/05/07 19:28:40;;;;;;;6.97;4.40;;;17.00;99.90;;;;;;6092290;29;20048;-78
2023/05/07 19:31:43;;;;;;;8.23;4.18;;;16.90;99.90;;;;;;6099123;29;20052;-78
2023/05/07 19:34:45;;;;;;;6.30;4.53;;;16.90;99.90;;;;;;6078467;29;20056;-79
2023/05/07 19:37:47;;;;;;;7.72;4.35;;;16.90;99.90;;;;;;6098950;29;20048;-79
2023/05/07 19:40:49;;;;;;;6.68;4.70;;;16.90;99.90;;;;;;6099005;29;20056;-78
2023/05/07 19:43:51;;;;;;;9.70;5.40;;;16.90;99.90;;;;;;6099485;29;20513;-79
2023/05/07 19:46:54;;;;;;;7.28;5.32;;;16.90;99.90;;;;;;6099853;29;20056;-80
2023/05/07 19:49:56;;;;;;;7.25;4.80;;;16.90;99.90;;;;;;6099496;29;20063;-81
2023/05/07 19:52:58;;;;;;;7.28;5.10;;;16.90;99.90;;;;;;6100102;29;20052;-79
2023/05/07 19:56:04;;;;;;;6.53;4.95;;;16.90;99.90;;;;;;6100357;29;20513;-81
2023/05/07 19:59:06;;;;;;;9.43;5.18;;;16.80;99.90;;;;;;6100764;29;20064;-81
2023/05/07 20:02:10;;;;;;;10.93;6.60;;;16.80;99.90;;;;;;6096061;29;20056;-80
2023/05/07 20:05:12;;;;;;;9.82;6.00;;;16.80;99.90;;;;;;6102063;29;20155;-76
2023/05/07 20:08:14;;;;;;;8.63;6.15;;;16.80;99.90;;;;;;6103511;29;20055;-75
2023/05/07 20:11:16;;;;;;;10.93;6.05;;;16.60;99.90;;;;;;6103461;29;20071;-75
2023/05/07 20:14:18;;;;;;;8.13;5.88;;;16.60;99.90;;;;;;6097021;29;20055;-75
2023/05/07 20:17:21;;;;;;;10.27;6.43;;;16.70;99.90;;;;;;6096345;29;20099;-78
2023/05/07 20:20:23;;;;;;;7.45;5.85;;;16.70;99.90;;;;;;6103802;29;20056;-75
2023/05/07 20:23:25;;;;;;;8.95;5.82;;;16.70;99.90;;;;;;6102273;29;20051;-76
2023/05/07 20:26:27;;;;;;;10.23;5.70;;;16.70;99.90;;;;;;6103228;29;20060;-76
2023/05/07 20:29:28;;;;;;;7.30;5.43;;;16.70;99.90;;;;;;6102864;29;20490;-76
2023/05/07 20:32:32;;;;;;;7.32;5.57;;;16.70;99.90;;;;;;6102282;29;20059;-76
2023/05/07 20:35:34;;;;;;;9.77;5.72;;;16.70;99.90;;;;;;6102849;29;20056;-77
2023/05/07 20:38:36;;;;;;;7.97;5.03;;;16.70;99.90;;;;;;6101892;29;20044;-75
2023/05/07 20:41:38;;;;;;;10.05;5.35;;;16.70;99.90;;;;;;6100810;29;20059;-76
2023/05/07 20:44:40;;;;;;;8.63;5.30;;;16.60;99.90;;;;;;6103673;29;20048;-76
2023/05/07 20:47:43;;;;;;;8.35;5.30;;;16.60;99.90;;;;;;6104361;29;20406;-77
2023/05/07 20:50:45;;;;;;;7.95;5.60;;;16.60;99.90;;;;;;6105160;29;20063;-79
2023/05/07 20:53:46;;;;;;;7.95;5.43;;;16.60;99.90;;;;;;6104947;29;20500;-76